sensor_id;sensor_type;location;lat;lon;timestamp;P1;durP1;ratioP1;P2;durP2;ratioP2
12719;SDS011;6424;48.520;11.228;2023-05-29T00:01:53;9.30;;;7.60;;
12719;SDS011;6424;48.520;11.228;2023-05-29T00:04:34;11.27;;;7.40;;
12719;SDS011;6424;48.520;11.228;2023-05-29T00:07:00;10.07;;;7.20;;
12719;SDS011;6424;48.520;11.228;2023-05-29T00:09:41;9.40;;;7.00;;
12719;SDS011;6424;48.520;11.228;2023-05-29T00:12:22;10.87;;;7.20;;
12719;SDS011;6424;48.520;11.228;2023-05-29T00:15:03;9.53;;;7.13;;
12719;SDS011;6424;48.520;11.228;2023-05-29T00:17:45;10.50;;;7.60;;
12719;SDS011;6424;48.520;11.228;2023-05-29T00:20:26;10.27;;;7.10;;
12719;SDS011;6424;48.520;11.228;2023-05-29T00:23:07;12.10;;;7.43;;
12719;SDS011;6424;48.520;11.228;2023-05-29T00:25:50;13.53;;;8.20;;
12719;SDS011;6424;48.520;11.228;2023-05-29T00:28:30;11.37;;;7.47;;
12719;SDS011;6424;48.520;11.228;2023-05-29T00:31:11;10.10;;;7.83;;
12719;SDS011;6424;48.520;11.228;2023-05-29T00:33:52;8.33;;;7.37;;
12719;SDS011;6424;48.520;11.228;2023-05-29T00:36:33;8.43;;;6.33;;
12719;SDS011;6424;48.520;11.228;2023-05-29T00:39:14;10.13;;;7.43;;
12719;SDS011;6424;48.520;11.228;2023-05-29T00:41:56;10.53;;;7.47;;
12719;SDS011;6424;48.520;11.228;2023-05-29T00:44:37;9.97;;;7.00;;
12719;SDS011;6424;48.520;11.228;2023-05-29T00:47:17;12.20;;;7.50;;
12719;SDS011;6424;48.520;11.228;2023-05-29T00:49:58;10.27;;;7.67;;
12719;SDS011;6424;48.520;11.228;2023-05-29T00:52:25;12.33;;;7.90;;
12719;SDS011;6424;48.520;11.228;2023-05-29T00:55:07;9.93;;;7.33;;
12719;SDS011;6424;48.520;11.228;2023-05-29T00:57:48;11.60;;;7.53;;
12719;SDS011;6424;48.520;11.228;2023-05-29T01:00:29;10.37;;;7.70;;
12719;SDS011;6424;48.520;11.228;2023-05-29T01:02:55;13.17;;;7.97;;
12719;SDS011;6424;48.520;11.228;2023-05-29T01:05:38;12.33;;;8.30;;
12719;SDS011;6424;48.520;11.228;2023-05-29T01:08:18;14.63;;;8.17;;
12719;SDS011;6424;48.520;11.228;2023-05-29T01:11:06;10.13;;;7.73;;
12719;SDS011;6424;48.520;11.228;2023-05-29T01:13:56;13.00;;;8.83;;
12719;SDS011;6424;48.520;11.228;2023-05-29T01:19:34;12.93;;;8.83;;
12719;SDS011;6424;48.520;11.228;2023-05-29T01:29:22;12.17;;;8.63;;
12719;SDS011;6424;48.520;11.228;2023-05-29T01:32:06;11.97;;;8.23;;
12719;SDS011;6424;48.520;11.228;2023-05-29T01:34:47;10.53;;;7.57;;
12719;SDS011;6424;48.520;11.228;2023-05-29T01:37:28;10.70;;;7.30;;
12719;SDS011;6424;48.520;11.228;2023-05-29T01:40:09;10.87;;;8.30;;
12719;SDS011;6424;48.520;11.228;2023-05-29T01:42:50;12.03;;;8.20;;
12719;SDS011;6424;48.520;11.228;2023-05-29T01:45:31;10.87;;;7.83;;
12719;SDS011;6424;48.520;11.228;2023-05-29T01:48:12;11.33;;;7.90;;
12719;SDS011;6424;48.520;11.228;2023-05-29T01:50:54;9.63;;;7.57;;
12719;SDS011;6424;48.520;11.228;2023-05-29T01:53:20;11.97;;;8.07;;
12719;SDS011;6424;48.520;11.228;2023-05-29T01:56:02;15.43;;;8.63;;
12719;SDS011;6424;48.520;11.228;2023-05-29T01:58:30;10.80;;;8.57;;
12719;SDS011;6424;48.520;11.228;2023-05-29T02:01:12;12.20;;;8.33;;
12719;SDS011;6424;48.520;11.228;2023-05-29T02:03:53;10.97;;;8.03;;
12719;SDS011;6424;48.520;11.228;2023-05-29T02:06:19;10.83;;;7.57;;
12719;SDS011;6424;48.520;11.228;2023-05-29T02:09:00;10.33;;;6.33;;
12719;SDS011;6424;48.520;11.228;2023-05-29T02:11:41;10.77;;;6.77;;
12719;SDS011;6424;48.520;11.228;2023-05-29T02:14:25;10.63;;;7.50;;
12719;SDS011;6424;48.520;11.228;2023-05-29T02:17:06;12.70;;;7.90;;
12719;SDS011;6424;48.520;11.228;2023-05-29T02:19:47;10.80;;;7.50;;
12719;SDS011;6424;48.520;11.228;2023-05-29T02:22:28;9.37;;;6.43;;
12719;SDS011;6424;48.520;11.228;2023-05-29T02:25:08;9.17;;;6.93;;
12719;SDS011;6424;48.520;11.228;2023-05-29T02:27:49;10.47;;;7.57;;
12719;SDS011;6424;48.520;11.228;2023-05-29T02:30:30;10.33;;;7.03;;
12719;SDS011;6424;48.520;11.228;2023-05-29T02:33:11;10.17;;;6.73;;
12719;SDS011;6424;48.520;11.228;2023-05-29T02:35:36;9.70;;;7.97;;
12719;SDS011;6424;48.520;11.228;2023-05-29T02:38:17;8.80;;;6.90;;
12719;SDS011;6424;48.520;11.228;2023-05-29T02:40:59;9.37;;;7.60;;
12719;SDS011;6424;48.520;11.228;2023-05-29T02:43:40;10.03;;;6.90;;
12719;SDS011;6424;48.520;11.228;2023-05-29T02:46:20;11.70;;;7.70;;
12719;SDS011;6424;48.520;11.228;2023-05-29T02:49:01;8.87;;;7.47;;
12719;SDS011;6424;48.520;11.228;2023-05-29T02:51:42;10.63;;;7.13;;
12719;SDS011;6424;48.520;11.228;2023-05-29T02:54:08;9.73;;;7.07;;
12719;SDS011;6424;48.520;11.228;2023-05-29T02:56:49;11.00;;;8.03;;
12719;SDS011;6424;48.520;11.228;2023-05-29T02:59:30;9.90;;;7.80;;
12719;SDS011;6424;48.520;11.228;2023-05-29T03:02:12;10.80;;;7.77;;
12719;SDS011;6424;48.520;11.228;2023-05-29T03:04:53;9.97;;;7.90;;
12719;SDS011;6424;48.520;11.228;2023-05-29T03:07:33;10.73;;;7.80;;
12719;SDS011;6424;48.520;11.228;2023-05-29T03:10:14;11.10;;;7.83;;
12719;SDS011;6424;48.520;11.228;2023-05-29T03:12:57;9.87;;;7.83;;
12719;SDS011;6424;48.520;11.228;2023-05-29T03:15:38;10.53;;;7.10;;
12719;SDS011;6424;48.520;11.228;2023-05-29T03:18:18;10.43;;;7.47;;
12719;SDS011;6424;48.520;11.228;2023-05-29T03:20:59;9.83;;;7.13;;
12719;SDS011;6424;48.520;11.228;2023-05-29T03:23:40;9.27;;;7.07;;
12719;SDS011;6424;48.520;11.228;2023-05-29T03:26:21;11.90;;;7.70;;
12719;SDS011;6424;48.520;11.228;2023-05-29T03:29:02;8.47;;;6.90;;
12719;SDS011;6424;48.520;11.228;2023-05-29T03:31:43;9.10;;;7.30;;
12719;SDS011;6424;48.520;11.228;2023-05-29T03:34:24;8.93;;;6.87;;
12719;SDS011;6424;48.520;11.228;2023-05-29T03:37:05;8.60;;;6.37;;
12719;SDS011;6424;48.520;11.228;2023-05-29T03:39:46;10.30;;;7.27;;
12719;SDS011;6424;48.520;11.228;2023-05-29T03:42:27;11.13;;;6.57;;
12719;SDS011;6424;48.520;11.228;2023-05-29T03:45:07;10.33;;;6.83;;
12719;SDS011;6424;48.520;11.228;2023-05-29T03:47:48;9.67;;;7.43;;
12719;SDS011;6424;48.520;11.228;2023-05-29T03:50:29;10.50;;;7.10;;
12719;SDS011;6424;48.520;11.228;2023-05-29T03:53:10;7.40;;;6.00;;
12719;SDS011;6424;48.520;11.228;2023-05-29T03:55:51;7.83;;;6.67;;
12719;SDS011;6424;48.520;11.228;2023-05-29T03:58:32;10.97;;;7.03;;
12719;SDS011;6424;48.520;11.228;2023-05-29T04:01:12;9.13;;;6.73;;
12719;SDS011;6424;48.520;11.228;2023-05-29T04:03:53;8.27;;;6.00;;
12719;SDS011;6424;48.520;11.228;2023-05-29T04:06:34;9.57;;;5.37;;
12719;SDS011;6424;48.520;11.228;2023-05-29T04:09:18;10.03;;;6.10;;
12719;SDS011;6424;48.520;11.228;2023-05-29T04:11:59;8.00;;;5.43;;
12719;SDS011;6424;48.520;11.228;2023-05-29T04:14:42;7.83;;;5.80;;
12719;SDS011;6424;48.520;11.228;2023-05-29T04:17:23;11.10;;;6.60;;
12719;SDS011;6424;48.520;11.228;2023-05-29T04:20:04;9.00;;;6.43;;
12719;SDS011;6424;48.520;11.228;2023-05-29T04:22:48;9.03;;;5.60;;
12719;SDS011;6424;48.520;11.228;2023-05-29T04:25:28;7.37;;;5.60;;
12719;SDS011;6424;48.520;11.228;2023-05-29T04:28:09;8.53;;;6.20;;
12719;SDS011;6424;48.520;11.228;2023-05-29T04:30:50;9.47;;;6.87;;
12719;SDS011;6424;48.520;11.228;2023-05-29T04:33:32;9.77;;;7.00;;
12719;SDS011;6424;48.520;11.228;2023-05-29T04:36:13;10.23;;;7.23;;
12719;SDS011;6424;48.520;11.228;2023-05-29T04:38:39;8.37;;;6.40;;
12719;SDS011;6424;48.520;11.228;2023-05-29T04:41:21;7.80;;;7.00;;
12719;SDS011;6424;48.520;11.228;2023-05-29T04:44:03;7.93;;;6.60;;
12719;SDS011;6424;48.520;11.228;2023-05-29T04:46:44;8.90;;;7.50;;
12719;SDS011;6424;48.520;11.228;2023-05-29T04:49:25;9.47;;;6.73;;
12719;SDS011;6424;48.520;11.228;2023-05-29T04:52:05;7.30;;;6.33;;
12719;SDS011;6424;48.520;11.228;2023-05-29T04:54:46;9.50;;;6.77;;
12719;SDS011;6424;48.520;11.228;2023-05-29T04:57:27;8.30;;;7.03;;
12719;SDS011;6424;48.520;11.228;2023-05-29T05:00:08;8.43;;;6.47;;
12719;SDS011;6424;48.520;11.228;2023-05-29T05:02:54;8.87;;;6.77;;
12719;SDS011;6424;48.520;11.228;2023-05-29T05:05:35;7.40;;;6.70;;
12719;SDS011;6424;48.520;11.228;2023-05-29T05:08:16;8.87;;;6.90;;
12719;SDS011;6424;48.520;11.228;2023-05-29T05:10:57;8.40;;;7.00;;
12719;SDS011;6424;48.520;11.228;2023-05-29T05:13:38;9.57;;;7.33;;
12719;SDS011;6424;48.520;11.228;2023-05-29T05:16:19;8.17;;;7.10;;
12719;SDS011;6424;48.520;11.228;2023-05-29T05:19:00;7.83;;;6.43;;
12719;SDS011;6424;48.520;11.228;2023-05-29T05:21:40;7.90;;;7.10;;
12719;SDS011;6424;48.520;11.228;2023-05-29T05:24:21;7.07;;;6.27;;
12719;SDS011;6424;48.520;11.228;2023-05-29T05:27:03;9.77;;;6.83;;
12719;SDS011;6424;48.520;11.228;2023-05-29T05:29:44;8.07;;;6.67;;
12719;SDS011;6424;48.520;11.228;2023-05-29T05:32:25;9.67;;;6.70;;
12719;SDS011;6424;48.520;11.228;2023-05-29T05:35:06;8.20;;;6.77;;
12719;SDS011;6424;48.520;11.228;2023-05-29T05:37:48;8.67;;;6.60;;
12719;SDS011;6424;48.520;11.228;2023-05-29T05:40:29;8.10;;;6.77;;
12719;SDS011;6424;48.520;11.228;2023-05-29T05:43:10;8.23;;;6.73;;
12719;SDS011;6424;48.520;11.228;2023-05-29T05:45:36;9.83;;;6.63;;
12719;SDS011;6424;48.520;11.228;2023-05-29T05:48:22;9.27;;;6.90;;
12719;SDS011;6424;48.520;11.228;2023-05-29T05:51:02;7.17;;;5.33;;
12719;SDS011;6424;48.520;11.228;2023-05-29T05:53:28;9.77;;;5.93;;
12719;SDS011;6424;48.520;11.228;2023-05-29T05:56:09;7.80;;;5.57;;
12719;SDS011;6424;48.520;11.228;2023-05-29T05:58:50;7.27;;;5.40;;
12719;SDS011;6424;48.520;11.228;2023-05-29T06:01:31;10.23;;;5.90;;
12719;SDS011;6424;48.520;11.228;2023-05-29T06:03:58;7.23;;;5.73;;
12719;SDS011;6424;48.520;11.228;2023-05-29T06:06:38;7.90;;;5.70;;
12719;SDS011;6424;48.520;11.228;2023-05-29T06:09:19;6.10;;;5.00;;
12719;SDS011;6424;48.520;11.228;2023-05-29T06:12:00;9.60;;;5.77;;
12719;SDS011;6424;48.520;11.228;2023-05-29T06:14:41;7.70;;;5.27;;
12719;SDS011;6424;48.520;11.228;2023-05-29T06:17:07;7.53;;;5.03;;
12719;SDS011;6424;48.520;11.228;2023-05-29T06:19:48;7.90;;;5.37;;
12719;SDS011;6424;48.520;11.228;2023-05-29T06:22:29;10.23;;;5.77;;
12719;SDS011;6424;48.520;11.228;2023-05-29T06:25:10;6.17;;;4.80;;
12719;SDS011;6424;48.520;11.228;2023-05-29T06:27:50;6.27;;;4.50;;
12719;SDS011;6424;48.520;11.228;2023-05-29T06:30:31;6.20;;;4.67;;
12719;SDS011;6424;48.520;11.228;2023-05-29T06:33:12;5.87;;;4.20;;
12719;SDS011;6424;48.520;11.228;2023-05-29T06:35:38;9.97;;;4.53;;
12719;SDS011;6424;48.520;11.228;2023-05-29T06:38:19;6.50;;;3.87;;
12719;SDS011;6424;48.520;11.228;2023-05-29T06:40:44;5.97;;;3.77;;
12719;SDS011;6424;48.520;11.228;2023-05-29T06:43:25;5.97;;;3.83;;
12719;SDS011;6424;48.520;11.228;2023-05-29T06:46:07;5.27;;;4.20;;
12719;SDS011;6424;48.520;11.228;2023-05-29T06:48:48;7.00;;;3.90;;
12719;SDS011;6424;48.520;11.228;2023-05-29T06:51:29;5.57;;;3.73;;
12719;SDS011;6424;48.520;11.228;2023-05-29T06:54:10;5.30;;;3.47;;
12719;SDS011;6424;48.520;11.228;2023-05-29T06:56:51;4.40;;;3.97;;
12719;SDS011;6424;48.520;11.228;2023-05-29T06:59:33;4.57;;;3.70;;
12719;SDS011;6424;48.520;11.228;2023-05-29T07:02:13;4.90;;;3.30;;
12719;SDS011;6424;48.520;11.228;2023-05-29T07:04:54;4.33;;;3.40;;
12719;SDS011;6424;48.520;11.228;2023-05-29T07:07:35;7.07;;;3.80;;
12719;SDS011;6424;48.520;11.228;2023-05-29T07:10:16;6.70;;;3.67;;
12719;SDS011;6424;48.520;11.228;2023-05-29T07:12:57;5.90;;;3.70;;
12719;SDS011;6424;48.520;11.228;2023-05-29T07:15:37;5.37;;;3.60;;
12719;SDS011;6424;48.520;11.228;2023-05-29T07:18:18;7.03;;;3.53;;
12719;SDS011;6424;48.520;11.228;2023-05-29T07:20:59;4.80;;;3.40;;
12719;SDS011;6424;48.520;11.228;2023-05-29T07:23:41;5.40;;;3.87;;
12719;SDS011;6424;48.520;11.228;2023-05-29T07:26:22;4.80;;;3.77;;
12719;SDS011;6424;48.520;11.228;2023-05-29T07:29:03;4.70;;;3.40;;
12719;SDS011;6424;48.520;11.228;2023-05-29T07:31:43;7.80;;;3.40;;
12719;SDS011;6424;48.520;11.228;2023-05-29T07:34:24;6.50;;;3.53;;
12719;SDS011;6424;48.520;11.228;2023-05-29T07:37:06;6.80;;;3.50;;
12719;SDS011;6424;48.520;11.228;2023-05-29T07:39:47;7.07;;;3.20;;
12719;SDS011;6424;48.520;11.228;2023-05-29T07:42:13;6.33;;;4.07;;
12719;SDS011;6424;48.520;11.228;2023-05-29T07:44:54;4.60;;;3.27;;
12719;SDS011;6424;48.520;11.228;2023-05-29T07:47:34;9.63;;;3.83;;
12719;SDS011;6424;48.520;11.228;2023-05-29T07:50:01;5.50;;;3.50;;
12719;SDS011;6424;48.520;11.228;2023-05-29T07:52:42;5.80;;;3.30;;
12719;SDS011;6424;48.520;11.228;2023-05-29T07:55:24;4.03;;;3.30;;
12719;SDS011;6424;48.520;11.228;2023-05-29T07:58:05;5.70;;;3.63;;
12719;SDS011;6424;48.520;11.228;2023-05-29T08:00:45;5.67;;;4.07;;
12719;SDS011;6424;48.520;11.228;2023-05-29T08:03:26;5.40;;;3.70;;
12719;SDS011;6424;48.520;11.228;2023-05-29T08:06:07;7.77;;;3.83;;
12719;SDS011;6424;48.520;11.228;2023-05-29T08:08:48;5.40;;;3.73;;
12719;SDS011;6424;48.520;11.228;2023-05-29T08:11:29;5.27;;;3.53;;
12719;SDS011;6424;48.520;11.228;2023-05-29T08:14:09;4.77;;;3.47;;
12719;SDS011;6424;48.520;11.228;2023-05-29T08:16:51;6.27;;;3.67;;
12719;SDS011;6424;48.520;11.228;2023-05-29T08:19:32;4.97;;;3.53;;
12719;SDS011;6424;48.520;11.228;2023-05-29T08:22:14;5.47;;;3.00;;
12719;SDS011;6424;48.520;11.228;2023-05-29T08:24:55;4.50;;;3.50;;
12719;SDS011;6424;48.520;11.228;2023-05-29T08:27:36;5.63;;;3.30;;
12719;SDS011;6424;48.520;11.228;2023-05-29T08:30:16;3.87;;;3.10;;
12719;SDS011;6424;48.520;11.228;2023-05-29T08:32:57;6.63;;;3.40;;
12719;SDS011;6424;48.520;11.228;2023-05-29T08:35:38;5.77;;;3.27;;
12719;SDS011;6424;48.520;11.228;2023-05-29T08:38:19;5.00;;;3.80;;
12719;SDS011;6424;48.520;11.228;2023-05-29T08:40:46;4.23;;;2.80;;
12719;SDS011;6424;48.520;11.228;2023-05-29T08:43:31;4.83;;;3.30;;
12719;SDS011;6424;48.520;11.228;2023-05-29T08:46:13;6.97;;;3.70;;
12719;SDS011;6424;48.520;11.228;2023-05-29T08:48:55;5.07;;;3.53;;
12719;SDS011;6424;48.520;11.228;2023-05-29T08:51:40;7.63;;;3.40;;
12719;SDS011;6424;48.520;11.228;2023-05-29T08:54:24;4.93;;;3.60;;
12719;SDS011;6424;48.520;11.228;2023-05-29T08:57:05;5.40;;;3.60;;
12719;SDS011;6424;48.520;11.228;2023-05-29T08:59:47;5.20;;;3.77;;
12719;SDS011;6424;48.520;11.228;2023-05-29T09:02:32;5.27;;;3.27;;
12719;SDS011;6424;48.520;11.228;2023-05-29T09:05:13;4.53;;;3.50;;
12719;SDS011;6424;48.520;11.228;2023-05-29T09:07:54;6.37;;;4.13;;
12719;SDS011;6424;48.520;11.228;2023-05-29T09:10:35;4.47;;;3.47;;
12719;SDS011;6424;48.520;11.228;2023-05-29T09:13:16;6.63;;;4.30;;
12719;SDS011;6424;48.520;11.228;2023-05-29T09:15:42;6.23;;;3.70;;
12719;SDS011;6424;48.520;11.228;2023-05-29T09:18:23;4.00;;;3.30;;
12719;SDS011;6424;48.520;11.228;2023-05-29T09:21:07;4.13;;;3.27;;
12719;SDS011;6424;48.520;11.228;2023-05-29T09:23:51;5.40;;;3.80;;
12719;SDS011;6424;48.520;11.228;2023-05-29T09:26:33;5.73;;;3.70;;
12719;SDS011;6424;48.520;11.228;2023-05-29T09:29:15;6.77;;;4.13;;
12719;SDS011;6424;48.520;11.228;2023-05-29T09:31:56;5.60;;;3.63;;
12719;SDS011;6424;48.520;11.228;2023-05-29T09:34:23;5.33;;;3.93;;
12719;SDS011;6424;48.520;11.228;2023-05-29T09:37:07;5.60;;;3.97;;
12719;SDS011;6424;48.520;11.228;2023-05-29T09:39:49;8.70;;;4.20;;
12719;SDS011;6424;48.520;11.228;2023-05-29T09:42:31;4.70;;;3.73;;
12719;SDS011;6424;48.520;11.228;2023-05-29T09:45:12;7.70;;;4.27;;
12719;SDS011;6424;48.520;11.228;2023-05-29T09:47:59;5.10;;;4.13;;
12719;SDS011;6424;48.520;11.228;2023-05-29T09:50:41;5.80;;;4.27;;
12719;SDS011;6424;48.520;11.228;2023-05-29T09:53:25;4.47;;;3.93;;
12719;SDS011;6424;48.520;11.228;2023-05-29T09:56:08;8.33;;;4.30;;
12719;SDS011;6424;48.520;11.228;2023-05-29T09:58:50;6.70;;;4.40;;
12719;SDS011;6424;48.520;11.228;2023-05-29T10:01:33;5.93;;;4.27;;
12719;SDS011;6424;48.520;11.228;2023-05-29T10:04:15;5.83;;;3.80;;
12719;SDS011;6424;48.520;11.228;2023-05-29T10:06:56;7.47;;;4.27;;
12719;SDS011;6424;48.520;11.228;2023-05-29T10:09:41;5.47;;;4.33;;
12719;SDS011;6424;48.520;11.228;2023-05-29T10:12:24;4.63;;;3.80;;
12719;SDS011;6424;48.520;11.228;2023-05-29T10:15:09;5.27;;;4.17;;
12719;SDS011;6424;48.520;11.228;2023-05-29T10:17:57;5.37;;;4.27;;
12719;SDS011;6424;48.520;11.228;2023-05-29T10:20:40;4.73;;;3.60;;
12719;SDS011;6424;48.520;11.228;2023-05-29T10:23:25;6.37;;;3.77;;
12719;SDS011;6424;48.520;11.228;2023-05-29T10:26:10;5.10;;;3.93;;
12719;SDS011;6424;48.520;11.228;2023-05-29T10:28:43;6.93;;;3.93;;
12719;SDS011;6424;48.520;11.228;2023-05-29T10:31:30;5.47;;;3.43;;
12719;SDS011;6424;48.520;11.228;2023-05-29T10:34:41;5.73;;;3.73;;
12719;SDS011;6424;48.520;11.228;2023-05-29T10:37:36;4.93;;;3.63;;
12719;SDS011;6424;48.520;11.228;2023-05-29T10:40:22;5.63;;;4.03;;
12719;SDS011;6424;48.520;11.228;2023-05-29T10:43:05;4.80;;;4.00;;
12719;SDS011;6424;48.520;11.228;2023-05-29T10:45:49;5.83;;;3.70;;
12719;SDS011;6424;48.520;11.228;2023-05-29T10:51:07;4.67;;;3.47;;
12719;SDS011;6424;48.520;11.228;2023-05-29T10:53:48;4.97;;;3.30;;
12719;SDS011;6424;48.520;11.228;2023-05-29T10:56:30;5.70;;;3.57;;
12719;SDS011;6424;48.520;11.228;2023-05-29T10:59:11;5.37;;;3.93;;
12719;SDS011;6424;48.520;11.228;2023-05-29T11:01:52;5.07;;;3.07;;
12719;SDS011;6424;48.520;11.228;2023-05-29T11:04:33;5.20;;;3.50;;
12719;SDS011;6424;48.520;11.228;2023-05-29T11:10:15;6.33;;;4.00;;
12719;SDS011;6424;48.520;11.228;2023-05-29T11:12:56;5.70;;;3.97;;
12719;SDS011;6424;48.520;11.228;2023-05-29T11:15:39;5.37;;;3.80;;
12719;SDS011;6424;48.520;11.228;2023-05-29T11:18:21;6.63;;;3.97;;
12719;SDS011;6424;48.520;11.228;2023-05-29T11:21:02;6.03;;;4.13;;
12719;SDS011;6424;48.520;11.228;2023-05-29T11:23:50;5.17;;;3.97;;
12719;SDS011;6424;48.520;11.228;2023-05-29T11:26:36;5.33;;;4.00;;
12719;SDS011;6424;48.520;11.228;2023-05-29T11:29:20;6.57;;;3.93;;
12719;SDS011;6424;48.520;11.228;2023-05-29T11:32:06;5.80;;;3.63;;
12719;SDS011;6424;48.520;11.228;2023-05-29T11:34:53;5.73;;;3.70;;
12719;SDS011;6424;48.520;11.228;2023-05-29T11:37:40;5.50;;;3.60;;
12719;SDS011;6424;48.520;11.228;2023-05-29T11:40:25;4.27;;;3.70;;
12719;SDS011;6424;48.520;11.228;2023-05-29T11:43:06;5.20;;;3.70;;
12719;SDS011;6424;48.520;11.228;2023-05-29T11:45:47;7.80;;;3.87;;
12719;SDS011;6424;48.520;11.228;2023-05-29T11:48:28;6.40;;;4.53;;
12719;SDS011;6424;48.520;11.228;2023-05-29T11:51:10;6.30;;;3.90;;
12719;SDS011;6424;48.520;11.228;2023-05-29T11:53:51;4.97;;;3.80;;
12719;SDS011;6424;48.520;11.228;2023-05-29T11:56:38;6.23;;;4.00;;
12719;SDS011;6424;48.520;11.228;2023-05-29T11:59:05;5.50;;;3.30;;
12719;SDS011;6424;48.520;11.228;2023-05-29T12:01:51;5.13;;;3.80;;
12719;SDS011;6424;48.520;11.228;2023-05-29T12:04:32;4.07;;;3.30;;
12719;SDS011;6424;48.520;11.228;2023-05-29T12:07:16;5.00;;;3.73;;
12719;SDS011;6424;48.520;11.228;2023-05-29T12:10:10;5.90;;;3.60;;
12719;SDS011;6424;48.520;11.228;2023-05-29T12:12:55;4.87;;;3.70;;
12719;SDS011;6424;48.520;11.228;2023-05-29T12:15:40;4.23;;;3.27;;
12719;SDS011;6424;48.520;11.228;2023-05-29T12:18:21;5.17;;;3.43;;
12719;SDS011;6424;48.520;11.228;2023-05-29T12:21:03;4.60;;;3.63;;
12719;SDS011;6424;48.520;11.228;2023-05-29T12:23:47;5.97;;;4.03;;
12719;SDS011;6424;48.520;11.228;2023-05-29T12:26:29;4.30;;;3.50;;
12719;SDS011;6424;48.520;11.228;2023-05-29T12:29:10;4.80;;;3.50;;
12719;SDS011;6424;48.520;11.228;2023-05-29T12:31:57;5.30;;;3.60;;
12719;SDS011;6424;48.520;11.228;2023-05-29T12:34:39;4.87;;;3.33;;
12719;SDS011;6424;48.520;11.228;2023-05-29T12:37:22;4.87;;;3.50;;
12719;SDS011;6424;48.520;11.228;2023-05-29T12:40:09;5.57;;;3.60;;
12719;SDS011;6424;48.520;11.228;2023-05-29T12:43:01;3.53;;;3.00;;
12719;SDS011;6424;48.520;11.228;2023-05-29T12:45:44;5.47;;;3.50;;
12719;SDS011;6424;48.520;11.228;2023-05-29T12:48:28;5.37;;;3.30;;
12719;SDS011;6424;48.520;11.228;2023-05-29T12:51:09;5.57;;;4.10;;
12719;SDS011;6424;48.520;11.228;2023-05-29T12:53:50;4.57;;;3.20;;
12719;SDS011;6424;48.520;11.228;2023-05-29T12:56:33;3.90;;;3.00;;
12719;SDS011;6424;48.520;11.228;2023-05-29T12:59:14;4.70;;;3.50;;
12719;SDS011;6424;48.520;11.228;2023-05-29T13:01:55;4.93;;;3.10;;
12719;SDS011;6424;48.520;11.228;2023-05-29T13:04:36;5.20;;;3.20;;
12719;SDS011;6424;48.520;11.228;2023-05-29T13:07:02;6.73;;;3.50;;
12719;SDS011;6424;48.520;11.228;2023-05-29T13:09:43;4.87;;;3.00;;
12719;SDS011;6424;48.520;11.228;2023-05-29T13:12:09;4.63;;;3.23;;
12719;SDS011;6424;48.520;11.228;2023-05-29T13:14:49;3.73;;;3.00;;
12719;SDS011;6424;48.520;11.228;2023-05-29T13:17:30;5.53;;;3.37;;
12719;SDS011;6424;48.520;11.228;2023-05-29T13:20:11;3.83;;;2.93;;
12719;SDS011;6424;48.520;11.228;2023-05-29T13:22:53;5.73;;;3.00;;
12719;SDS011;6424;48.520;11.228;2023-05-29T13:25:34;5.10;;;3.20;;
12719;SDS011;6424;48.520;11.228;2023-05-29T13:28:15;4.63;;;2.70;;
12719;SDS011;6424;48.520;11.228;2023-05-29T13:30:56;7.03;;;3.43;;
12719;SDS011;6424;48.520;11.228;2023-05-29T13:33:37;4.13;;;3.23;;
12719;SDS011;6424;48.520;11.228;2023-05-29T13:36:18;5.20;;;2.90;;
12719;SDS011;6424;48.520;11.228;2023-05-29T13:38:44;4.57;;;3.20;;
12719;SDS011;6424;48.520;11.228;2023-05-29T13:41:26;4.23;;;2.97;;
12719;SDS011;6424;48.520;11.228;2023-05-29T13:44:07;7.33;;;3.50;;
12719;SDS011;6424;48.520;11.228;2023-05-29T13:46:47;3.90;;;3.00;;
12719;SDS011;6424;48.520;11.228;2023-05-29T13:49:28;5.70;;;3.10;;
12719;SDS011;6424;48.520;11.228;2023-05-29T13:52:09;4.93;;;2.77;;
12719;SDS011;6424;48.520;11.228;2023-05-29T13:54:50;3.70;;;2.77;;
12719;SDS011;6424;48.520;11.228;2023-05-29T13:57:31;3.70;;;2.77;;
12719;SDS011;6424;48.520;11.228;2023-05-29T14:00:12;5.03;;;2.97;;
12719;SDS011;6424;48.520;11.228;2023-05-29T14:02:53;5.80;;;3.50;;
12719;SDS011;6424;48.520;11.228;2023-05-29T14:05:34;3.40;;;2.57;;
12719;SDS011;6424;48.520;11.228;2023-05-29T14:08:15;4.40;;;2.73;;
12719;SDS011;6424;48.520;11.228;2023-05-29T14:10:56;3.70;;;3.00;;
12719;SDS011;6424;48.520;11.228;2023-05-29T14:13:37;8.40;;;3.17;;
12719;SDS011;6424;48.520;11.228;2023-05-29T14:16:18;5.40;;;2.67;;
12719;SDS011;6424;48.520;11.228;2023-05-29T14:18:59;3.60;;;2.60;;
12719;SDS011;6424;48.520;11.228;2023-05-29T14:21:40;3.83;;;3.00;;
12719;SDS011;6424;48.520;11.228;2023-05-29T14:24:21;3.47;;;2.57;;
12719;SDS011;6424;48.520;11.228;2023-05-29T14:27:02;4.10;;;3.27;;
12719;SDS011;6424;48.520;11.228;2023-05-29T14:29:43;4.60;;;2.87;;
12719;SDS011;6424;48.520;11.228;2023-05-29T14:32:26;3.07;;;2.50;;
12719;SDS011;6424;48.520;11.228;2023-05-29T14:35:07;6.07;;;2.90;;
12719;SDS011;6424;48.520;11.228;2023-05-29T14:37:48;4.13;;;2.70;;
12719;SDS011;6424;48.520;11.228;2023-05-29T14:40:29;3.60;;;2.60;;
12719;SDS011;6424;48.520;11.228;2023-05-29T14:43:11;5.57;;;2.80;;
12719;SDS011;6424;48.520;11.228;2023-05-29T14:45:52;4.37;;;2.80;;
12719;SDS011;6424;48.520;11.228;2023-05-29T14:48:18;3.60;;;2.60;;
12719;SDS011;6424;48.520;11.228;2023-05-29T14:50:58;4.07;;;2.97;;
12719;SDS011;6424;48.520;11.228;2023-05-29T14:53:39;5.10;;;3.07;;
12719;SDS011;6424;48.520;11.228;2023-05-29T14:56:20;3.80;;;2.67;;
12719;SDS011;6424;48.520;11.228;2023-05-29T14:59:01;5.97;;;2.60;;
12719;SDS011;6424;48.520;11.228;2023-05-29T15:01:42;4.37;;;3.00;;
12719;SDS011;6424;48.520;11.228;2023-05-29T15:04:22;5.57;;;3.07;;
12719;SDS011;6424;48.520;11.228;2023-05-29T15:07:03;3.70;;;2.67;;
12719;SDS011;6424;48.520;11.228;2023-05-29T15:09:45;7.30;;;2.97;;
12719;SDS011;6424;48.520;11.228;2023-05-29T15:12:26;5.33;;;2.77;;
12719;SDS011;6424;48.520;11.228;2023-05-29T15:15:07;4.93;;;3.03;;
12719;SDS011;6424;48.520;11.228;2023-05-29T15:17:48;5.73;;;2.70;;
12719;SDS011;6424;48.520;11.228;2023-05-29T15:20:32;3.37;;;2.50;;
12719;SDS011;6424;48.520;11.228;2023-05-29T15:23:13;3.67;;;2.63;;
12719;SDS011;6424;48.520;11.228;2023-05-29T15:25:55;4.73;;;2.53;;
12719;SDS011;6424;48.520;11.228;2023-05-29T15:28:21;4.43;;;2.73;;
12719;SDS011;6424;48.520;11.228;2023-05-29T15:31:02;3.83;;;2.60;;
12719;SDS011;6424;48.520;11.228;2023-05-29T15:33:43;3.47;;;2.53;;
12719;SDS011;6424;48.520;11.228;2023-05-29T15:36:09;3.27;;;2.50;;
12719;SDS011;6424;48.520;11.228;2023-05-29T15:38:49;3.17;;;2.50;;
12719;SDS011;6424;48.520;11.228;2023-05-29T15:41:15;3.03;;;2.73;;
12719;SDS011;6424;48.520;11.228;2023-05-29T15:43:56;4.00;;;2.73;;
12719;SDS011;6424;48.520;11.228;2023-05-29T15:46:37;3.87;;;2.90;;
12719;SDS011;6424;48.520;11.228;2023-05-29T15:49:18;3.10;;;2.67;;
12719;SDS011;6424;48.520;11.228;2023-05-29T15:51:59;2.97;;;2.67;;
12719;SDS011;6424;48.520;11.228;2023-05-29T15:54:40;4.80;;;2.63;;
12719;SDS011;6424;48.520;11.228;2023-05-29T15:57:21;5.30;;;2.77;;
12719;SDS011;6424;48.520;11.228;2023-05-29T16:00:02;4.63;;;2.80;;
12719;SDS011;6424;48.520;11.228;2023-05-29T16:02:44;3.00;;;2.60;;
12719;SDS011;6424;48.520;11.228;2023-05-29T16:05:25;4.57;;;2.63;;
12719;SDS011;6424;48.520;11.228;2023-05-29T16:08:06;4.17;;;2.70;;
12719;SDS011;6424;48.520;11.228;2023-05-29T16:10:48;3.43;;;2.43;;
12719;SDS011;6424;48.520;11.228;2023-05-29T16:13:29;6.03;;;2.97;;
12719;SDS011;6424;48.520;11.228;2023-05-29T16:16:13;3.57;;;2.77;;
12719;SDS011;6424;48.520;11.228;2023-05-29T16:18:56;2.60;;;2.40;;
12719;SDS011;6424;48.520;11.228;2023-05-29T16:21:37;4.23;;;3.03;;